This is the latest recevied weather packets stored in our database for station/object LU2DKV-10. If no packets are shown the sender has not sent any weather packets the latest 10 day(s).
| Time | Temp. | Humidity | Pressure | Rain* | Wind** | Luminosity | Snow |
|---|---|---|---|---|---|---|---|
| 1777929156 | 18.89° C | 51% | 1009 hPa | - | - | 0 W/m² | - |
| 1777927334 | 19.44° C | 48% | 1009 hPa | - | - | 0 W/m² | - |
| 1777925512 | 20° C | 44% | 1009 hPa | - | - | 0 W/m² | - |
| 1777923690 | 20° C | 43% | 1009 hPa | - | - | 0 W/m² | - |
| 1777921868 | 20.56° C | 42% | 1009 hPa | - | - | 0 W/m² | - |
| 1777920046 | 20° C | 43% | 1009 hPa | - | - | 0 W/m² | - |
| 1777918224 | 19.44° C | 44% | 1009 hPa | - | - | 0 W/m² | - |
| 1777916402 | 19.44° C | 43% | 1010 hPa | - | - | 0 W/m² | - |
| 1777914580 | 19.44° C | 44% | 1011 hPa | - | - | 0 W/m² | - |
| 1777912758 | 18.89° C | 46% | 1011 hPa | - | - | 0 W/m² | - |
| 1777910936 | 18.89° C | 49% | 1012 hPa | - | - | 0 W/m² | - |
| 1777909114 | 18.33° C | 47% | 1012 hPa | - | - | 0 W/m² | - |
| 1777907292 | 17.78° C | 49% | 1013 hPa | - | - | 0 W/m² | - |
| 1777905470 | 17.78° C | 50% | 1012 hPa | - | - | 0 W/m² | - |
| 1777903648 | 16.67° C | 52% | 1012 hPa | - | - | 0 W/m² | - |
| 1777901826 | 16.67° C | 53% | 1013 hPa | - | - | 0 W/m² | - |
| 1777900004 | 16.11° C | 54% | 1013 hPa | - | - | 0 W/m² | - |
| 1777898182 | 15.56° C | 56% | 1013 hPa | - | - | 0 W/m² | - |
| 1777896360 | 15° C | 58% | 1013 hPa | - | - | 0 W/m² | - |
| 1777894538 | 13.89° C | 59% | 1013 hPa | - | - | 0 W/m² | - |
| 1777892716 | 13.89° C | 59% | 1013 hPa | - | - | 0 W/m² | - |
| 1777890894 | 13.89° C | 58% | 1013 hPa | - | - | 0 W/m² | - |
| 1777889072 | 14.44° C | 57% | 1013 hPa | - | - | 0 W/m² | - |
| 1777887250 | 13.89° C | 56% | 1012 hPa | - | - | 0 W/m² | - |
| 1777885437 | 14.44° C | 55% | 1012 hPa | - | - | 0 W/m² | - |
* Rain since midnight (hover to see other rain measurements)
** Current wind speed in m/s (hover to see current wind gust speed)